Time;durP1;ratioP1;P1;durP2;ratioP2;P2;SDS_P1;SDS_P2;PMS_P1;PMS_P2;Temp;Humidity;BMP_temperature;BMP_pressure;BME280_temperature;BME280_humidity;BME280_pressure;Samples;Min_cycle;Max_cycle;Signal;HPM_P1;HPM_P2
2021/01/09 00:02:16;;;;;;;3.95;3.60;;;;;;;3.38;74.84;94595.53;5083230;28;20480;-80
2021/01/09 00:04:45;;;;;;;3.85;3.17;;;;;;;3.37;74.03;94591.41;5083600;28;20054;-80
2021/01/09 00:07:11;;;;;;;2.70;2.50;;;;;;;3.25;72.66;94592.91;5074278;28;20048;-80
2021/01/09 00:09:39;;;;;;;3.47;3.20;;;;;;;3.16;74.62;94583.81;5102157;28;20071;-81
2021/01/09 00:12:05;;;;;;;2.80;2.70;;;;;;;3.14;73.53;94601.19;5068744;28;20028;-81
2021/01/09 00:14:31;;;;;;;2.88;2.78;;;;;;;3.08;75.05;94617.34;5066094;28;20024;-80
2021/01/09 00:17:02;;;;;;;3.45;3.25;;;;;;;3.04;74.35;94608.44;5081866;28;20532;-80
2021/01/09 00:19:27;;;;;;;4.00;3.70;;;;;;;3.10;74.77;94620.53;5083633;28;20043;-80
2021/01/09 00:21:53;;;;;;;4.53;4.13;;;;;;;3.12;74.51;94614.22;5083473;28;20032;-80
2021/01/09 00:24:19;;;;;;;7.65;5.80;;;;;;;3.15;76.21;94623.31;5082366;28;20028;-80
2021/01/09 00:26:44;;;;;;;4.05;3.75;;;;;;;3.28;75.05;94618.25;5079258;28;20020;-80
2021/01/09 00:29:10;;;;;;;4.95;4.28;;;;;;;3.27;76.13;94608.97;5081920;28;20027;-79
2021/01/09 00:31:35;;;;;;;5.47;4.13;;;;;;;3.29;74.75;94615.50;5084644;28;20032;-80
2021/01/09 00:34:02;;;;;;;3.85;3.55;;;;;;;3.37;75.96;94617.09;5083071;28;20475;-79
2021/01/09 00:36:27;;;;;;;4.78;4.28;;;;;;;3.30;73.46;94616.28;5048443;28;20059;-80
2021/01/09 00:38:56;;;;;;;6.75;4.53;;;;;;;3.28;72.94;94615.69;5064747;28;20479;-79
2021/01/09 00:41:29;;;;;;;4.50;4.10;;;;;;;3.34;72.30;94606.41;5047433;28;20060;-79
2021/01/09 00:43:54;;;;;;;4.30;3.90;;;;;;;3.42;73.69;94619.91;5082995;28;20035;-80
2021/01/09 00:46:21;;;;;;;5.20;4.38;;;;;;;3.38;73.28;94618.69;5084157;28;20040;-80
2021/01/09 00:48:47;;;;;;;7.25;5.18;;;;;;;3.43;75.11;94625.84;5050040;28;20430;-80
2021/01/09 00:51:13;;;;;;;4.88;4.38;;;;;;;3.44;73.07;94617.94;5081745;28;20496;-79
2021/01/09 00:53:39;;;;;;;5.07;4.25;;;;;;;3.47;72.71;94629.59;5080353;28;20036;-79
2021/01/09 00:56:05;;;;;;;5.20;4.47;;;;;;;3.49;72.57;94623.28;5084756;28;20024;-79
2021/01/09 00:58:34;;;;;;;6.30;4.30;;;;;;;3.55;73.09;94635.34;5047212;28;20438;-80
2021/01/09 01:01:00;;;;;;;3.78;3.47;;;;;;;3.59;73.28;94646.84;5063497;28;20454;-79
2021/01/09 01:03:44;;;;;;;8.15;4.18;;;;;;;3.58;71.55;94635.00;5064412;28;20438;-78
2021/01/09 01:06:13;;;;;;;4.88;3.33;;;;;;;3.70;73.76;94634.41;5035774;28;20120;-78
2021/01/09 01:08:39;;;;;;;3.53;2.75;;;;;;;3.67;72.25;94642.50;5103371;28;20040;-77
2021/01/09 01:11:05;;;;;;;3.28;3.08;;;;;;;3.79;72.45;94643.53;5097158;28;20526;-79
2021/01/09 01:13:31;;;;;;;3.30;3.10;;;;;;;3.86;73.19;94636.63;5090728;28;20396;-79
2021/01/09 01:15:56;;;;;;;3.50;3.20;;;;;;;3.84;71.39;94641.19;5078637;28;20275;-77
2021/01/09 01:18:23;;;;;;;3.13;2.92;;;;;;;3.85;70.51;94633.25;5092630;28;20032;-80
2021/01/09 01:21:08;;;;;;;6.25;3.05;;;;;;;3.76;70.94;94610.50;5067611;28;20036;-80
2021/01/09 01:23:34;;;;;;;2.53;2.42;;;;;;;3.82;71.12;94631.09;5081640;28;20546;-80
2021/01/09 01:26:08;;;;;;;2.30;2.20;;;;;;;3.75;71.56;94639.78;5081702;28;20078;-80
2021/01/09 01:29:03;;;;;;;2.47;2.30;;;;;;;3.67;71.00;94627.09;5064121;28;20055;-80
2021/01/09 01:31:29;;;;;;;2.83;2.72;;;;;;;3.56;72.69;94615.56;5081101;28;20024;-80
2021/01/09 01:33:54;;;;;;;2.22;2.13;;;;;;;3.68;71.46;94636.38;5046039;28;20032;-80
2021/01/09 01:36:20;;;;;;;3.03;2.83;;;;;;;3.70;70.80;94639.56;5081251;28;20480;-80
2021/01/09 01:38:46;;;;;;;2.10;2.00;;;;;;;3.69;71.22;94632.81;5082587;28;20035;-80
2021/01/09 01:41:12;;;;;;;3.42;3.22;;;;;;;3.69;72.34;94623.34;5084958;28;20040;-80
2021/01/09 01:43:37;;;;;;;3.40;3.20;;;;;;;3.68;72.17;94633.81;5065789;28;20024;-79
2021/01/09 01:46:04;;;;;;;2.22;2.13;;;;;;;3.66;71.52;94630.66;5064397;28;20040;-79
2021/01/09 01:48:33;;;;;;;3.05;2.85;;;;;;;3.65;71.71;94627.28;5076267;28;20070;-78
2021/01/09 01:50:59;;;;;;;2.50;2.40;;;;;;;3.54;71.45;94636.34;5064177;28;20106;-78
2021/01/09 01:53:28;;;;;;;3.72;3.08;;;;;;;3.57;71.77;94624.88;5044514;28;20063;-78
2021/01/09 01:55:54;;;;;;;3.03;2.83;;;;;;;3.55;72.45;94630.22;5082443;28;20415;-79
2021/01/09 01:58:20;;;;;;;3.35;3.15;;;;;;;3.57;72.10;94623.09;5080169;28;20024;-79
2021/01/09 02:00:49;;;;;;;3.05;2.85;;;;;;;3.61;71.46;94624.31;5048727;28;20483;-80
2021/01/09 02:03:18;;;;;;;6.05;2.92;;;;;;;3.61;71.91;94629.47;5062438;28;20051;-79
2021/01/09 02:05:59;;;;;;;2.75;2.33;;;;;;;3.56;71.36;94631.78;5063081;28;20027;-79
2021/01/09 02:08:28;;;;;;;4.05;3.30;;;;;;;3.45;71.51;94640.06;5062008;28;20028;-78
2021/01/09 02:10:56;;;;;;;4.63;4.25;;;;;;;3.45;72.78;94629.78;5044938;28;20571;-78
2021/01/09 02:13:30;;;;;;;4.40;3.60;;;;;;;3.49;72.04;94633.56;5061561;28;20036;-79
2021/01/09 02:15:56;;;;;;;3.15;2.80;;;;;;;3.40;72.01;94639.84;5078652;28;20036;-79
2021/01/09 02:18:21;;;;;;;2.85;2.60;;;;;;;3.43;72.02;94634.34;5061707;28;20476;-79
2021/01/09 02:20:49;;;;;;;3.70;2.95;;;;;;;3.39;71.77;94634.88;5046009;28;20020;-78
2021/01/09 02:23:14;;;;;;;3.17;2.13;;;;;;;3.31;73.12;94641.78;5080083;28;20028;-79
2021/01/09 02:25:40;;;;;;;4.00;2.55;;;;;;;3.28;72.19;94638.81;5026946;28;20426;-79
2021/01/09 02:28:05;;;;;;;3.13;2.92;;;;;;;3.24;72.50;94637.59;5045946;28;20055;-79
2021/01/09 02:30:31;;;;;;;3.35;2.47;;;;;;;3.21;72.46;94632.84;5081684;28;20028;-78
2021/01/09 02:33:00;;;;;;;3.42;2.90;;;;;;;3.23;72.60;94630.88;5081200;28;20487;-78
2021/01/09 02:35:30;;;;;;;3.72;2.67;;;;;;;3.30;72.10;94621.44;5078979;28;20029;-79
2021/01/09 02:38:29;;;;;;;12.40;5.50;;;;;;;3.32;72.78;94629.72;5071351;28;20050;-81
2021/01/09 02:40:54;;;;;;;10.95;4.95;;;;;;;3.38;73.35;94626.38;5009191;28;20048;-80
2021/01/09 02:43:25;;;;;;;5.28;4.10;;;;;;;3.41;72.22;94633.72;5061358;28;20522;-82
2021/01/09 02:45:50;;;;;;;4.57;4.15;;;;;;;3.42;71.84;94642.25;5046704;28;20035;-80
2021/01/09 02:48:16;;;;;;;7.30;4.78;;;;;;;3.43;72.14;94642.03;5080403;28;20434;-79
2021/01/09 02:50:41;;;;;;;3.90;3.20;;;;;;;3.46;72.77;94638.28;5082024;28;20480;-79
2021/01/09 02:53:06;;;;;;;4.47;4.10;;;;;;;3.48;72.15;94631.97;5066201;28;20039;-79
2021/01/09 02:55:32;;;;;;;5.07;3.38;;;;;;;3.42;71.69;94634.53;5063803;28;20039;-79
2021/01/09 02:57:57;;;;;;;4.78;3.70;;;;;;;3.36;72.48;94637.84;5029702;28;20043;-80
2021/01/09 03:00:23;;;;;;;5.93;3.90;;;;;;;3.35;72.89;94639.63;5062873;28;20055;-79
2021/01/09 03:02:48;;;;;;;2.78;2.63;;;;;;;3.25;72.66;94636.59;5070983;28;20028;-79
2021/01/09 03:05:14;;;;;;;3.05;2.85;;;;;;;3.29;72.65;94641.19;5083952;28;20063;-79
2021/01/09 03:07:39;;;;;;;3.50;2.17;;;;;;;3.22;71.99;94644.69;5083345;28;20106;-80
2021/01/09 03:10:05;;;;;;;3.05;2.72;;;;;;;3.02;72.82;94629.19;5083650;28;20062;-80
2021/01/09 03:12:31;;;;;;;3.60;3.28;;;;;;;2.99;72.92;94635.50;5083597;28;20488;-79
2021/01/09 03:14:56;;;;;;;2.50;2.40;;;;;;;3.01;73.98;94638.66;5063325;28;20036;-79
2021/01/09 03:17:24;;;;;;;2.47;2.30;;;;;;;3.11;72.81;94637.53;5063637;28;20044;-79
2021/01/09 03:19:50;;;;;;;7.13;2.75;;;;;;;3.06;72.65;94645.78;5067541;28;20040;-79
2021/01/09 03:22:15;;;;;;;2.83;2.63;;;;;;;3.09;72.66;94639.47;5049460;28;20085;-79
2021/01/09 03:24:41;;;;;;;3.28;2.72;;;;;;;3.17;71.81;94650.41;5046429;28;20040;-79
2021/01/09 03:27:07;;;;;;;2.85;2.65;;;;;;;3.22;71.96;94642.13;5048446;28;20353;-79
2021/01/09 03:29:32;;;;;;;3.67;3.40;;;;;;;3.26;72.77;94641.56;5049633;28;20559;-79
2021/01/09 03:31:59;;;;;;;3.13;2.92;;;;;;;3.31;71.44;94649.50;5083886;28;20034;-79
2021/01/09 03:34:24;;;;;;;2.45;2.25;;;;;;;3.37;72.19;94647.94;5066367;28;20036;-79
2021/01/09 03:36:50;;;;;;;3.13;2.92;;;;;;;3.38;71.27;94639.25;5067947;28;20045;-79
2021/01/09 03:39:15;;;;;;;3.65;3.45;;;;;;;3.41;71.39;94646.56;5066855;28;20032;-79
2021/01/09 03:41:41;;;;;;;4.78;3.40;;;;;;;3.42;70.07;94645.59;5065719;28;20041;-79
2021/01/09 03:44:06;;;;;;;3.97;3.70;;;;;;;3.34;71.21;94662.94;5066840;28;20045;-79
2021/01/09 03:46:35;;;;;;;6.40;3.90;;;;;;;3.35;70.66;94655.03;5082749;28;20044;-79
2021/01/09 03:49:20;;;;;;;4.43;4.03;;;;;;;3.35;71.33;94660.19;5071990;28;20048;-79
2021/01/09 03:51:48;;;;;;;5.18;4.68;;;;;;;3.32;70.21;94668.28;5085309;28;20457;-79
2021/01/09 03:54:14;;;;;;;3.60;3.28;;;;;;;3.27;70.02;94662.94;5085843;28;20415;-79
2021/01/09 03:56:40;;;;;;;3.80;3.47;;;;;;;3.17;70.78;94667.59;5028753;28;20033;-79
2021/01/09 03:59:05;;;;;;;6.03;3.97;;;;;;;3.13;71.10;94662.06;5082611;28;20583;-78
2021/01/09 04:01:31;;;;;;;5.65;5.10;;;;;;;3.08;71.69;94666.94;5082258;28;20025;-80
2021/01/09 04:03:56;;;;;;;3.50;3.20;;;;;;;3.17;71.29;94678.69;5049748;28;20040;-80
2021/01/09 04:06:25;;;;;;;3.35;3.05;;;;;;;3.18;70.81;94680.25;5054010;28;20037;-80
2021/01/09 04:08:50;;;;;;;2.53;2.42;;;;;;;3.18;70.29;94675.13;5051581;28;20041;-79
2021/01/09 04:11:16;;;;;;;3.47;3.20;;;;;;;3.14;70.97;94683.41;5083140;28;20039;-80
2021/01/09 04:13:41;;;;;;;4.43;2.65;;;;;;;3.11;69.91;94687.16;5081736;28;20116;-79
2021/01/09 04:16:07;;;;;;;3.15;2.92;;;;;;;3.11;70.24;94688.94;5067231;28;20418;-80
2021/01/09 04:18:32;;;;;;;3.72;3.47;;;;;;;2.95;71.35;94690.81;5065681;28;20055;-78
2021/01/09 04:20:58;;;;;;;4.45;4.15;;;;;;;3.04;70.62;94691.44;5081373;28;20043;-79
2021/01/09 04:23:25;;;;;;;5.03;4.00;;;;;;;2.96;71.13;94687.25;5049086;28;20039;-79
2021/01/09 04:25:59;;;;;;;3.30;3.10;;;;;;;2.98;70.72;94687.06;5085332;28;20032;-80
2021/01/09 04:28:25;;;;;;;3.97;3.67;;;;;;;3.03;71.09;94696.75;5020969;28;20503;-79
2021/01/09 04:30:50;;;;;;;4.45;3.90;;;;;;;3.00;71.13;94697.94;5082803;28;20028;-78
2021/01/09 04:33:16;;;;;;;4.70;4.30;;;;;;;3.05;71.05;94700.72;5084498;28;20036;-78
2021/01/09 04:35:47;;;;;;;5.05;4.63;;;;;;;3.12;69.96;94705.94;5084148;28;20036;-79
2021/01/09 04:38:13;;;;;;;4.87;4.47;;;;;;;3.14;69.91;94703.97;5082566;28;20035;-79
2021/01/09 04:40:41;;;;;;;7.90;4.53;;;;;;;3.17;70.22;94714.66;5083157;28;20494;-79
2021/01/09 04:43:06;;;;;;;5.38;4.85;;;;;;;3.21;70.19;94715.06;5084293;28;20154;-79
2021/01/09 04:45:32;;;;;;;5.38;4.88;;;;;;;3.21;69.59;94715.06;5085324;28;20036;-81
2021/01/09 04:47:57;;;;;;;4.88;4.38;;;;;;;3.21;69.53;94717.63;5069276;28;20048;-80
2021/01/09 04:50:23;;;;;;;5.68;5.10;;;;;;;3.28;69.97;94728.75;5072876;28;20569;-80
2021/01/09 04:52:48;;;;;;;6.00;4.70;;;;;;;3.31;69.41;94726.59;5071879;28;20024;-79
2021/01/09 04:55:17;;;;;;;5.55;3.97;;;;;;;3.38;69.44;94731.75;5067261;28;20549;-80
2021/01/09 04:57:42;;;;;;;4.32;3.92;;;;;;;3.38;69.50;94726.63;5086106;28;20117;-81
2021/01/09 05:00:09;;;;;;;4.45;4.07;;;;;;;3.40;68.81;94716.94;5034446;28;20032;-79
2021/01/09 05:02:35;;;;;;;8.80;6.63;;;;;;;3.47;68.49;94730.63;5079930;28;20029;-80
2021/01/09 05:05:01;;;;;;;13.65;7.82;;;;;;;3.54;68.85;94736.59;5063599;28;20042;-80
2021/01/09 05:07:26;;;;;;;12.00;8.95;;;;;;;3.57;68.38;94736.22;5047679;28;20028;-80
2021/01/09 05:10:00;;;;;;;8.38;5.97;;;;;;;3.67;68.72;94737.66;5063160;28;20092;-80
2021/01/09 05:15:00;;;;;;;18.48;7.55;;;;;;;3.70;67.48;94750.13;5176586;22;20044;-80
2021/01/09 05:17:26;;;;;;;8.95;5.72;;;;;;;3.69;67.90;94754.47;5080186;28;20036;-79
2021/01/09 05:19:52;;;;;;;4.28;3.92;;;;;;;3.65;67.50;94757.63;5091139;28;20477;-79
2021/01/09 05:22:17;;;;;;;7.22;5.75;;;;;;;3.69;67.20;94763.97;5082784;28;20103;-79
2021/01/09 05:24:55;;;;;;;12.05;5.55;;;;;;;3.57;67.41;94756.78;5067924;28;20043;-79
2021/01/09 05:27:20;;;;;;;8.30;6.47;;;;;;;3.41;67.74;94756.28;5079388;28;20032;-78
2021/01/09 05:29:52;;;;;;;13.23;7.68;;;;;;;3.31;68.69;94754.88;5061006;28;20036;-79
2021/01/09 05:32:48;;;;;;;9.35;6.60;;;;;;;3.29;68.37;94768.88;5047357;28;20463;-79
2021/01/09 05:35:13;;;;;;;5.78;5.00;;;;;;;3.24;68.79;94777.13;5060559;28;20127;-79
2021/01/09 05:37:39;;;;;;;11.48;7.35;;;;;;;3.19;68.79;94773.56;5094220;28;20040;-79
2021/01/09 05:40:05;;;;;;;7.65;6.60;;;;;;;3.13;69.72;94787.16;5082714;28;20044;-79
2021/01/09 05:42:30;;;;;;;6.40;4.97;;;;;;;3.03;70.42;94789.22;5065009;28;20060;-79
2021/01/09 05:45:06;;;;;;;13.23;7.88;;;;;;;3.10;70.16;94792.66;5079732;28;20024;-82
2021/01/09 05:47:31;;;;;;;18.75;9.18;;;;;;;3.07;69.52;94801.50;5051177;28;20055;-80
2021/01/09 05:49:58;;;;;;;22.50;11.55;;;;;;;3.00;69.72;94803.25;5088141;28;20484;-80
2021/01/09 05:52:24;;;;;;;14.73;8.38;;;;;;;2.99;69.36;94805.03;5083576;28;20067;-80
2021/01/09 05:54:56;;;;;;;13.70;7.68;;;;;;;2.91;70.40;94802.56;5062287;28;20043;-80
2021/01/09 05:57:29;;;;;;;14.13;8.43;;;;;;;2.90;69.93;94800.97;5081785;28;20123;-80
2021/01/09 05:59:58;;;;;;;;;;;;;;;2.90;69.60;94800.97;5067445;28;20042;-79
2021/01/09 06:02:24;;;;;;;9.55;7.50;;;;;;;2.91;69.47;94800.00;5049164;28;19923;-80
2021/01/09 06:05:21;;;;;;;10.85;8.27;;;;;;;2.94;69.80;94798.88;5064983;28;20485;-80
2021/01/09 06:07:47;;;;;;;18.88;13.75;;;;;;;3.06;69.81;94809.41;5021642;28;20050;-80
2021/01/09 06:10:13;;;;;;;21.85;15.95;;;;;;;3.14;69.56;94796.44;5000720;28;20045;-80
2021/01/09 06:12:59;;;;;;;21.15;15.38;;;;;;;3.18;69.19;94805.38;4989097;28;20166;-80
2021/01/09 06:15:25;;;;;;;16.83;11.82;;;;;;;3.23;69.31;94815.88;4987897;28;20033;-80
2021/01/09 06:17:51;;;;;;;14.80;12.65;;;;;;;3.34;69.56;94817.16;4984113;28;20045;-80
2021/01/09 06:20:19;;;;;;;12.95;11.23;;;;;;;3.45;67.76;94809.72;5004249;28;20746;-80
2021/01/09 06:22:45;;;;;;;13.98;12.20;;;;;;;3.47;68.15;94817.25;5004915;28;20042;-80
2021/01/09 06:25:11;;;;;;;16.63;13.75;;;;;;;3.49;68.65;94816.06;5001344;28;20038;-80
2021/01/09 06:27:36;;;;;;;12.63;10.00;;;;;;;3.63;67.78;94826.44;5003024;28;20030;-80
2021/01/09 06:30:03;;;;;;;18.40;12.18;;;;;;;3.68;67.47;94817.19;4986788;28;20567;-79
2021/01/09 06:32:32;;;;;;;17.58;12.85;;;;;;;3.71;67.66;94836.56;5002327;28;20092;-79
2021/01/09 06:34:58;;;;;;;22.83;16.15;;;;;;;3.78;67.35;94834.84;5022927;28;20102;-79
2021/01/09 06:37:26;;;;;;;21.02;14.15;;;;;;;3.84;67.88;94849.50;5002386;28;20049;-80
2021/01/09 06:39:52;;;;;;;20.75;14.75;;;;;;;3.89;66.81;94852.31;5018686;28;20042;-79
2021/01/09 06:42:18;;;;;;;44.35;19.92;;;;;;;3.95;67.36;94864.44;5004716;28;20515;-79
2021/01/09 06:44:50;;;;;;;35.03;17.98;;;;;;;3.94;66.26;94875.72;5000014;28;20046;-79
2021/01/09 06:47:29;;;;;;;37.08;18.38;;;;;;;3.97;67.24;94877.91;5004327;28;20038;-80
2021/01/09 06:49:54;;;;;;;39.78;18.90;;;;;;;3.96;66.87;94884.03;5002908;28;20056;-81
2021/01/09 06:52:20;;;;;;;40.83;23.27;;;;;;;3.94;66.11;94888.56;5055573;28;20104;-81
2021/01/09 06:54:46;;;;;;;35.70;19.75;;;;;;;3.91;66.54;94901.81;5032038;28;20097;-80
2021/01/09 06:57:21;;;;;;;46.38;27.13;;;;;;;3.93;67.07;94907.56;5065291;28;20028;-80
2021/01/09 06:59:50;;;;;;;37.78;19.13;;;;;;;3.75;67.30;94902.09;5056297;28;20039;-81
2021/01/09 07:02:21;;;;;;;50.13;28.77;;;;;;;3.87;66.98;94908.28;5104053;22;20033;-80
2021/01/09 07:04:56;;;;;;;30.83;19.35;;;;;;;3.77;67.40;94918.94;5048446;28;20033;-80
2021/01/09 07:07:37;;;;;;;39.40;23.20;;;;;;;3.86;68.02;94924.72;5066470;28;20131;-80
2021/01/09 07:10:16;;;;;;;41.28;22.23;;;;;;;3.87;66.48;94918.59;5043363;28;20029;-80
2021/01/09 07:12:47;;;;;;;38.20;18.05;;;;;;;3.88;67.11;94920.16;5040988;28;20488;-79
2021/01/09 07:15:12;;;;;;;25.10;16.02;;;;;;;3.91;68.53;94928.34;5029095;28;20030;-79
2021/01/09 07:17:39;;;;;;;26.25;18.15;;;;;;;3.84;67.51;94932.63;5045682;28;20037;-79
2021/01/09 07:20:09;;;;;;;27.95;17.92;;;;;;;3.90;68.03;94937.03;5045958;28;20234;-79
2021/01/09 07:22:42;;;;;;;38.38;21.67;;;;;;;3.99;67.79;94949.75;5045468;28;20071;-79
2021/01/09 07:25:09;;;;;;;40.10;22.80;;;;;;;4.02;66.94;94950.16;5034758;28;20039;-79
2021/01/09 07:27:44;;;;;;;57.90;28.33;;;;;;;4.09;66.85;94961.31;5046187;28;20091;-79
2021/01/09 07:30:36;;;;;;;57.55;28.55;;;;;;;4.13;67.30;94967.66;5056191;28;20060;-80
2021/01/09 07:33:14;;;;;;;36.10;20.30;;;;;;;4.04;67.34;94973.91;5159118;23;20073;-81
2021/01/09 07:35:49;;;;;;;46.15;18.02;;;;;;;4.11;66.54;94974.78;4998521;28;20046;-80
2021/01/09 07:38:15;;;;;;;19.30;13.95;;;;;;;4.15;66.45;94985.50;5028010;28;20040;-78
2021/01/09 07:40:49;;;;;;;33.35;17.60;;;;;;;4.11;66.97;94979.94;5016523;28;20075;-78
2021/01/09 07:43:38;;;;;;;67.93;41.33;;;;;;;4.16;67.22;94984.50;5049823;28;20041;-78
2021/01/09 07:46:26;;;;;;;27.40;17.42;;;;;;;4.14;67.06;94992.41;5030239;28;20504;-84
2021/01/09 07:48:52;;;;;;;43.10;25.95;;;;;;;4.21;67.64;94995.03;5041569;28;20596;-77
2021/01/09 07:51:18;;;;;;;137.68;66.65;;;;;;;4.24;67.88;94997.25;5009616;28;20045;-78
2021/01/09 07:53:45;;;;;;;70.35;35.67;;;;;;;4.29;67.90;94988.94;5040513;28;20120;-78
2021/01/09 07:56:10;;;;;;;171.23;71.70;;;;;;;4.42;67.30;94986.47;5041178;28;20036;-78
2021/01/09 07:58:45;;;;;;;242.93;101.18;;;;;;;4.49;66.69;94982.94;5022974;28;20056;-78
2021/01/09 08:01:10;;;;;;;170.45;70.63;;;;;;;4.61;67.16;94985.78;5008476;28;20048;-78
2021/01/09 08:03:37;;;;;;;143.50;62.55;;;;;;;4.72;66.40;94976.72;5027682;28;20069;-78
2021/01/09 08:06:03;;;;;;;167.27;75.43;;;;;;;4.82;66.57;94982.28;5028220;28;20080;-79
2021/01/09 08:08:29;;;;;;;168.10;76.97;;;;;;;4.90;65.86;94983.94;5043646;28;21096;-79
2021/01/09 08:10:54;;;;;;;120.10;63.97;;;;;;;4.91;65.00;94985.53;5024496;28;20029;-79
2021/01/09 08:13:21;;;;;;;173.50;92.60;;;;;;;5.05;64.59;94993.13;5045515;28;20029;-79
2021/01/09 08:15:54;;;;;;;127.38;68.15;;;;;;;5.09;66.08;94988.34;5044481;28;20035;-79
2021/01/09 08:18:20;;;;;;;133.57;78.30;;;;;;;5.15;65.09;94986.78;5041962;28;20166;-80
2021/01/09 08:20:52;;;;;;;78.85;51.28;;;;;;;5.22;63.64;94985.81;5026312;28;20504;-81
2021/01/09 08:23:17;;;;;;;87.38;52.63;;;;;;;5.27;64.47;94985.25;5025556;28;20029;-80
2021/01/09 08:25:43;;;;;;;48.88;28.35;;;;;;;5.35;63.59;94985.03;5010953;28;20048;-79
2021/01/09 08:28:09;;;;;;;61.45;36.17;;;;;;;5.46;63.24;94994.81;5024730;28;20112;-80
2021/01/09 08:30:36;;;;;;;24.60;17.52;;;;;;;5.38;64.01;94993.22;5043534;28;20500;-80
2021/01/09 08:33:11;;;;;;;32.40;18.00;;;;;;;5.39;63.49;94997.38;5045241;28;20033;-80
2021/01/09 08:35:47;;;;;;;34.95;16.98;;;;;;;5.29;63.26;94994.38;5011656;28;20059;-80
2021/01/09 08:38:13;;;;;;;23.80;11.43;;;;;;;5.20;62.59;94999.88;5015452;28;20065;-80
2021/01/09 08:40:44;;;;;;;21.08;11.05;;;;;;;5.25;63.26;95003.47;5009387;28;20692;-80
2021/01/09 08:45:52;;;;;;;19.40;11.88;;;;;;;5.19;62.96;95004.25;5125091;23;20452;-79
2021/01/09 08:48:23;;;;;;;14.25;10.02;;;;;;;5.09;63.62;95004.63;5051535;28;20033;-79
2021/01/09 08:51:01;;;;;;;23.03;13.10;;;;;;;5.07;63.85;95001.44;5069986;28;20060;-80
2021/01/09 08:53:27;;;;;;;24.23;12.57;;;;;;;5.09;63.44;95008.97;5084321;22;20053;-79
2021/01/09 08:56:03;;;;;;;32.70;16.65;;;;;;;5.11;63.58;94996.69;5025039;28;20033;-80
2021/01/09 08:58:30;;;;;;;26.33;15.65;;;;;;;5.09;64.62;94991.72;5015135;28;20148;-79
2021/01/09 09:00:56;;;;;;;24.27;15.50;;;;;;;5.21;63.69;94986.03;4981235;28;20060;-80
2021/01/09 09:03:21;;;;;;;29.98;19.10;;;;;;;5.30;63.43;94992.56;5029467;28;20056;-80
2021/01/09 09:05:47;;;;;;;58.67;31.92;;;;;;;5.47;63.79;94982.69;4980059;28;20125;-80
2021/01/09 09:08:12;;;;;;;48.75;32.60;;;;;;;5.61;63.12;94994.63;4977674;28;20494;-79
2021/01/09 09:10:39;;;;;;;54.10;35.95;;;;;;;5.75;63.63;94980.75;4980388;28;20395;-80
2021/01/09 09:13:21;;;;;;;32.33;21.35;;;;;;;5.94;61.60;94980.00;5029747;28;20383;-80
2021/01/09 09:15:47;;;;;;;51.33;33.38;;;;;;;6.13;60.77;94986.16;5012756;28;20221;-80
2021/01/09 09:18:13;;;;;;;51.33;29.00;;;;;;;6.22;60.21;94974.63;4997019;28;20034;-81
2021/01/09 09:20:39;;;;;;;34.97;19.98;;;;;;;6.31;59.69;94973.41;4996564;28;20033;-80
2021/01/09 09:23:37;;;;;;;42.47;25.70;;;;;;;6.31;61.16;94972.63;5011404;28;20033;-80
2021/01/09 09:26:09;;;;;;;41.35;26.95;;;;;;;6.34;59.25;94972.22;4976091;28;20048;-80
2021/01/09 09:28:47;;;;;;;36.27;23.70;;;;;;;6.33;59.75;94975.78;5016098;28;20121;-80
2021/01/09 09:31:21;;;;;;;52.25;28.77;;;;;;;6.29;60.27;94980.56;5015457;28;20068;-79
2021/01/09 09:34:12;;;;;;;75.28;34.58;;;;;;;6.23;61.29;94980.59;5017631;28;20037;-80
2021/01/09 09:36:50;;;;;;;43.20;23.92;;;;;;;6.15;60.75;94975.63;5015712;28;20068;-79
2021/01/09 09:39:22;;;;;;;71.05;44.85;;;;;;;6.03;60.91;94974.66;5010863;28;20034;-80
2021/01/09 09:41:50;;;;;;;92.47;60.60;;;;;;;6.11;60.63;94972.66;5013334;28;20049;-79
2021/01/09 09:44:16;;;;;;;118.55;76.32;;;;;;;6.06;61.45;94977.63;5016177;28;20026;-78
2021/01/09 09:46:42;;;;;;;67.00;46.55;;;;;;;6.12;60.32;94966.50;5001795;28;20494;-79
2021/01/09 09:49:08;;;;;;;59.72;40.17;;;;;;;6.01;61.32;94970.47;5018763;28;20038;-80
2021/01/09 09:51:36;;;;;;;54.15;34.50;;;;;;;6.01;59.83;94973.03;5015015;28;20037;-82
2021/01/09 09:54:02;;;;;;;31.17;20.25;;;;;;;5.95;61.27;94968.69;5011964;28;20425;-81
2021/01/09 09:56:34;;;;;;;50.60;32.58;;;;;;;5.94;62.13;94956.78;5010927;28;20407;-81
2021/01/09 09:59:01;;;;;;;33.45;21.42;;;;;;;6.07;61.41;94953.41;5020797;28;20033;-82
2021/01/09 10:01:30;;;;;;;30.17;20.45;;;;;;;6.13;60.94;94946.63;5009196;28;20492;-82
2021/01/09 10:03:55;;;;;;;38.30;26.00;;;;;;;6.14;60.95;94958.53;5016601;28;20099;-81
2021/01/09 10:06:22;;;;;;;45.38;28.55;;;;;;;6.18;60.72;94955.38;5020271;28;20403;-81
2021/01/09 10:09:29;;;;;;;48.17;31.13;;;;;;;6.18;60.13;94951.97;5011477;28;20034;-81
2021/01/09 10:11:54;;;;;;;56.80;33.85;;;;;;;6.24;62.04;94946.03;4998890;28;20042;-81
2021/01/09 10:14:23;;;;;;;49.47;29.25;;;;;;;6.33;61.21;94942.22;5014634;28;20026;-81
2021/01/09 10:16:49;;;;;;;34.72;22.50;;;;;;;6.51;59.13;94947.56;5013630;28;20057;-81
2021/01/09 10:19:16;;;;;;;23.48;17.73;;;;;;;6.50;59.13;94945.16;5014647;28;20444;-83
2021/01/09 10:21:42;;;;;;;24.48;17.80;;;;;;;6.54;60.88;94949.75;5014123;28;20042;-81
2021/01/09 10:24:10;;;;;;;27.02;18.88;;;;;;;6.72;60.08;94949.09;5014215;28;20038;-83
2021/01/09 10:26:38;;;;;;;18.88;13.90;;;;;;;6.87;61.05;94949.63;5013154;28;20048;-81
2021/01/09 10:29:03;;;;;;;13.60;10.25;;;;;;;6.84;61.83;94946.66;4978116;28;20026;-76
2021/01/09 10:31:36;;;;;;;22.58;13.63;;;;;;;6.81;60.63;94947.84;4993636;28;20050;-73
2021/01/09 10:34:02;;;;;;;18.42;13.30;;;;;;;6.78;61.12;94947.47;5006538;28;20476;-75
2021/01/09 10:36:39;;;;;;;28.25;16.77;;;;;;;6.75;62.97;94947.88;5007126;28;20074;-73
2021/01/09 10:39:08;;;;;;;23.98;15.35;;;;;;;6.79;59.67;94941.31;5009981;28;20096;-74
2021/01/09 10:41:39;;;;;;;39.58;25.05;;;;;;;6.71;61.18;94931.22;5012796;28;20044;-73
2021/01/09 10:44:11;;;;;;;56.58;36.38;;;;;;;6.66;60.25;94931.78;5020335;28;20088;-72
2021/01/09 10:46:40;;;;;;;59.78;35.80;;;;;;;6.59;60.34;94939.59;5009776;28;20092;-73
2021/01/09 10:49:05;;;;;;;61.53;37.08;;;;;;;6.42;60.17;94953.94;4995478;28;20081;-73
2021/01/09 10:51:31;;;;;;;68.32;40.33;;;;;;;6.42;60.14;94943.59;4993040;28;20109;-73
2021/01/09 10:53:56;;;;;;;105.13;55.33;;;;;;;6.44;60.74;94945.97;5010776;28;20038;-74
2021/01/09 10:56:22;;;;;;;141.77;76.80;;;;;;;6.43;61.84;94950.34;5012564;28;20034;-73
2021/01/09 10:58:48;;;;;;;106.18;58.67;;;;;;;6.43;61.36;94950.34;5012129;28;20424;-71
2021/01/09 11:01:13;;;;;;;97.47;55.85;;;;;;;6.37;61.49;94946.00;5011966;28;20099;-72
2021/01/09 11:03:41;;;;;;;88.95;49.78;;;;;;;6.27;61.36;94945.63;5022534;28;20029;-74
2021/01/09 11:06:09;;;;;;;77.05;48.22;;;;;;;6.26;62.97;94947.41;5034001;28;20044;-74
2021/01/09 11:08:34;;;;;;;63.67;38.28;;;;;;;6.29;62.13;94953.94;5019014;28;20262;-74
2021/01/09 11:11:00;;;;;;;68.72;44.25;;;;;;;6.32;62.56;94963.88;5010183;28;20038;-74
2021/01/09 11:13:25;;;;;;;52.88;31.90;;;;;;;6.24;62.88;94961.53;5009582;28;20041;-74
2021/01/09 11:15:51;;;;;;;43.80;25.30;;;;;;;6.23;62.08;94963.31;4991871;28;20520;-74
2021/01/09 11:18:16;;;;;;;77.18;48.67;;;;;;;6.17;62.49;94958.13;5008596;28;20112;-74
2021/01/09 11:20:47;;;;;;;79.72;49.40;;;;;;;6.13;62.02;94954.38;4976859;28;20061;-74
2021/01/09 11:23:12;;;;;;;56.15;36.63;;;;;;;6.02;62.62;94950.63;5010712;28;20030;-74
2021/01/09 11:25:41;;;;;;;56.33;38.10;;;;;;;5.97;62.85;94950.41;5026482;28;20065;-74
2021/01/09 11:28:09;;;;;;;70.22;43.20;;;;;;;5.98;63.15;94952.00;4991043;28;20030;-74
2021/01/09 11:30:34;;;;;;;59.88;37.05;;;;;;;5.99;63.78;94953.59;5008951;28;20030;-74
2021/01/09 11:33:00;;;;;;;55.22;33.13;;;;;;;6.05;62.71;94941.69;5009702;28;20032;-74
2021/01/09 11:35:25;;;;;;;57.92;33.05;;;;;;;6.14;63.13;94932.72;5011521;28;20030;-75
2021/01/09 11:37:51;;;;;;;59.38;36.53;;;;;;;6.19;62.65;94930.34;5025975;28;20018;-74
2021/01/09 11:40:16;;;;;;;58.50;34.38;;;;;;;6.24;62.32;94930.53;5010284;28;20022;-74
2021/01/09 11:42:42;;;;;;;59.10;31.52;;;;;;;6.28;61.84;94926.53;5009020;28;20046;-74
2021/01/09 11:45:08;;;;;;;45.45;29.35;;;;;;;6.29;62.01;94933.28;5009671;28;20026;-74
2021/01/09 11:47:34;;;;;;;52.72;33.30;;;;;;;6.35;62.35;94944.63;5007315;28;20080;-74